sensor_id;sensor_type;location;lat;lon;timestamp;P1;durP1;ratioP1;P2;durP2;ratioP2
249;SDS011;109;19.806;-70.704;2024-01-06T00:00:03;20.23;;;4.80;;
249;SDS011;109;19.806;-70.704;2024-01-06T00:02:37;28.80;;;5.40;;
249;SDS011;109;19.806;-70.704;2024-01-06T00:05:04;23.30;;;4.20;;
249;SDS011;109;19.806;-70.704;2024-01-06T00:07:31;24.17;;;4.70;;
249;SDS011;109;19.806;-70.704;2024-01-06T00:09:57;21.43;;;4.90;;
249;SDS011;109;19.806;-70.704;2024-01-06T00:12:24;49.03;;;5.50;;
249;SDS011;109;19.806;-70.704;2024-01-06T00:14:50;31.83;;;4.90;;
249;SDS011;109;19.806;-70.704;2024-01-06T00:17:17;17.00;;;4.30;;
249;SDS011;109;19.806;-70.704;2024-01-06T00:19:43;53.90;;;6.50;;
249;SDS011;109;19.806;-70.704;2024-01-06T00:22:10;37.47;;;6.47;;
249;SDS011;109;19.806;-70.704;2024-01-06T00:24:37;24.50;;;5.80;;
249;SDS011;109;19.806;-70.704;2024-01-06T00:27:03;30.80;;;6.07;;
249;SDS011;109;19.806;-70.704;2024-01-06T00:29:30;21.13;;;4.13;;
249;SDS011;109;19.806;-70.704;2024-01-06T00:31:56;25.50;;;6.20;;
249;SDS011;109;19.806;-70.704;2024-01-06T00:34:22;30.63;;;5.43;;
249;SDS011;109;19.806;-70.704;2024-01-06T00:36:49;25.77;;;5.50;;
249;SDS011;109;19.806;-70.704;2024-01-06T00:39:15;24.73;;;5.77;;
249;SDS011;109;19.806;-70.704;2024-01-06T00:41:42;33.07;;;5.13;;
249;SDS011;109;19.806;-70.704;2024-01-06T00:44:08;40.03;;;7.03;;
249;SDS011;109;19.806;-70.704;2024-01-06T00:46:35;24.10;;;4.63;;
249;SDS011;109;19.806;-70.704;2024-01-06T00:49:01;33.23;;;5.07;;
249;SDS011;109;19.806;-70.704;2024-01-06T00:51:28;49.40;;;6.07;;
249;SDS011;109;19.806;-70.704;2024-01-06T00:53:54;19.40;;;4.90;;
249;SDS011;109;19.806;-70.704;2024-01-06T00:56:21;44.97;;;7.57;;
249;SDS011;109;19.806;-70.704;2024-01-06T00:58:48;44.00;;;6.03;;
249;SDS011;109;19.806;-70.704;2024-01-06T01:01:14;34.80;;;6.20;;
249;SDS011;109;19.806;-70.704;2024-01-06T01:03:40;70.17;;;7.67;;
249;SDS011;109;19.806;-70.704;2024-01-06T01:06:07;28.27;;;5.40;;
249;SDS011;109;19.806;-70.704;2024-01-06T01:08:43;31.53;;;6.23;;
249;SDS011;109;19.806;-70.704;2024-01-06T01:11:17;20.57;;;5.30;;
249;SDS011;109;19.806;-70.704;2024-01-06T01:13:44;23.10;;;4.70;;
249;SDS011;109;19.806;-70.704;2024-01-06T01:16:17;33.10;;;5.47;;
249;SDS011;109;19.806;-70.704;2024-01-06T01:18:43;21.07;;;4.73;;
249;SDS011;109;19.806;-70.704;2024-01-06T01:21:16;22.33;;;4.60;;
249;SDS011;109;19.806;-70.704;2024-01-06T01:23:43;11.60;;;4.50;;
249;SDS011;109;19.806;-70.704;2024-01-06T01:26:15;21.53;;;4.40;;
249;SDS011;109;19.806;-70.704;2024-01-06T01:28:42;18.70;;;5.00;;
249;SDS011;109;19.806;-70.704;2024-01-06T01:31:14;27.30;;;5.20;;
249;SDS011;109;19.806;-70.704;2024-01-06T01:33:41;21.90;;;5.40;;
249;SDS011;109;19.806;-70.704;2024-01-06T01:36:13;32.23;;;4.70;;
249;SDS011;109;19.806;-70.704;2024-01-06T01:39:02;29.83;;;5.90;;
249;SDS011;109;19.806;-70.704;2024-01-06T01:41:35;27.83;;;4.57;;
249;SDS011;109;19.806;-70.704;2024-01-06T01:44:02;20.17;;;4.77;;
249;SDS011;109;19.806;-70.704;2024-01-06T01:46:35;16.83;;;4.27;;
249;SDS011;109;19.806;-70.704;2024-01-06T01:49:03;16.87;;;4.07;;
249;SDS011;109;19.806;-70.704;2024-01-06T01:51:37;10.60;;;3.63;;
249;SDS011;109;19.806;-70.704;2024-01-06T01:54:05;12.17;;;3.60;;
249;SDS011;109;19.806;-70.704;2024-01-06T01:56:39;10.83;;;3.53;;
249;SDS011;109;19.806;-70.704;2024-01-06T01:59:13;15.03;;;3.40;;
249;SDS011;109;19.806;-70.704;2024-01-06T02:01:46;18.33;;;6.63;;
249;SDS011;109;19.806;-70.704;2024-01-06T02:04:13;14.17;;;4.13;;
249;SDS011;109;19.806;-70.704;2024-01-06T02:06:46;12.93;;;3.40;;
249;SDS011;109;19.806;-70.704;2024-01-06T02:09:13;12.00;;;3.80;;
249;SDS011;109;19.806;-70.704;2024-01-06T02:11:46;13.07;;;3.70;;
249;SDS011;109;19.806;-70.704;2024-01-06T02:14:13;11.80;;;3.50;;
249;SDS011;109;19.806;-70.704;2024-01-06T02:16:45;16.47;;;4.57;;
249;SDS011;109;19.806;-70.704;2024-01-06T02:19:12;15.70;;;4.20;;
249;SDS011;109;19.806;-70.704;2024-01-06T02:21:48;21.87;;;4.10;;
249;SDS011;109;19.806;-70.704;2024-01-06T02:24:16;22.67;;;4.10;;
249;SDS011;109;19.806;-70.704;2024-01-06T02:26:57;47.17;;;6.40;;
249;SDS011;109;19.806;-70.704;2024-01-06T02:29:30;13.67;;;3.73;;
249;SDS011;109;19.806;-70.704;2024-01-06T02:31:57;18.27;;;3.97;;
249;SDS011;109;19.806;-70.704;2024-01-06T02:34:32;19.10;;;4.83;;
249;SDS011;109;19.806;-70.704;2024-01-06T02:37:19;21.27;;;4.53;;
249;SDS011;109;19.806;-70.704;2024-01-06T02:39:52;12.23;;;4.40;;
249;SDS011;109;19.806;-70.704;2024-01-06T02:42:19;16.30;;;4.30;;
249;SDS011;109;19.806;-70.704;2024-01-06T02:44:52;22.10;;;4.00;;
249;SDS011;109;19.806;-70.704;2024-01-06T02:47:19;15.63;;;4.40;;
249;SDS011;109;19.806;-70.704;2024-01-06T02:49:51;19.43;;;4.20;;
249;SDS011;109;19.806;-70.704;2024-01-06T02:52:18;12.83;;;4.37;;
249;SDS011;109;19.806;-70.704;2024-01-06T02:54:50;14.43;;;4.33;;
249;SDS011;109;19.806;-70.704;2024-01-06T02:57:17;14.77;;;4.10;;
249;SDS011;109;19.806;-70.704;2024-01-06T02:59:50;11.90;;;4.27;;
249;SDS011;109;19.806;-70.704;2024-01-06T03:02:17;12.43;;;4.57;;
249;SDS011;109;19.806;-70.704;2024-01-06T03:04:49;12.53;;;4.23;;
249;SDS011;109;19.806;-70.704;2024-01-06T03:07:16;19.80;;;5.77;;
249;SDS011;109;19.806;-70.704;2024-01-06T03:09:48;15.10;;;5.30;;
249;SDS011;109;19.806;-70.704;2024-01-06T03:12:15;16.13;;;5.70;;
249;SDS011;109;19.806;-70.704;2024-01-06T03:14:47;15.83;;;5.93;;
249;SDS011;109;19.806;-70.704;2024-01-06T03:17:14;10.50;;;4.57;;
249;SDS011;109;19.806;-70.704;2024-01-06T03:19:46;10.00;;;4.80;;
249;SDS011;109;19.806;-70.704;2024-01-06T03:22:13;16.40;;;4.80;;
249;SDS011;109;19.806;-70.704;2024-01-06T03:24:45;16.00;;;4.60;;
249;SDS011;109;19.806;-70.704;2024-01-06T03:27:19;13.40;;;4.17;;
249;SDS011;109;19.806;-70.704;2024-01-06T03:29:52;20.33;;;4.70;;
249;SDS011;109;19.806;-70.704;2024-01-06T03:32:19;8.17;;;4.17;;
249;SDS011;109;19.806;-70.704;2024-01-06T03:34:51;13.57;;;5.20;;
249;SDS011;109;19.806;-70.704;2024-01-06T03:37:38;10.40;;;4.10;;
249;SDS011;109;19.806;-70.704;2024-01-06T03:40:11;13.10;;;4.07;;
249;SDS011;109;19.806;-70.704;2024-01-06T03:42:38;11.27;;;4.20;;
249;SDS011;109;19.806;-70.704;2024-01-06T03:45:11;9.57;;;4.20;;
249;SDS011;109;19.806;-70.704;2024-01-06T03:47:38;13.03;;;4.20;;
249;SDS011;109;19.806;-70.704;2024-01-06T03:50:11;9.33;;;4.20;;
249;SDS011;109;19.806;-70.704;2024-01-06T03:52:38;14.47;;;4.97;;
249;SDS011;109;19.806;-70.704;2024-01-06T03:55:11;16.23;;;4.70;;
249;SDS011;109;19.806;-70.704;2024-01-06T03:57:38;11.43;;;4.03;;
249;SDS011;109;19.806;-70.704;2024-01-06T04:00:11;9.80;;;4.70;;
249;SDS011;109;19.806;-70.704;2024-01-06T04:02:38;11.40;;;4.23;;
249;SDS011;109;19.806;-70.704;2024-01-06T04:05:11;13.30;;;4.30;;
249;SDS011;109;19.806;-70.704;2024-01-06T04:07:38;9.17;;;4.20;;
249;SDS011;109;19.806;-70.704;2024-01-06T04:10:11;14.70;;;4.33;;
249;SDS011;109;19.806;-70.704;2024-01-06T04:12:38;10.30;;;4.20;;
249;SDS011;109;19.806;-70.704;2024-01-06T04:15:10;12.07;;;3.80;;
249;SDS011;109;19.806;-70.704;2024-01-06T04:17:37;12.10;;;4.10;;
249;SDS011;109;19.806;-70.704;2024-01-06T04:20:20;9.23;;;4.07;;
249;SDS011;109;19.806;-70.704;2024-01-06T04:22:53;16.40;;;4.13;;
249;SDS011;109;19.806;-70.704;2024-01-06T04:25:20;13.30;;;4.33;;
249;SDS011;109;19.806;-70.704;2024-01-06T04:27:53;15.60;;;4.50;;
249;SDS011;109;19.806;-70.704;2024-01-06T04:30:20;12.27;;;3.83;;
249;SDS011;109;19.806;-70.704;2024-01-06T04:32:52;8.90;;;3.97;;
249;SDS011;109;19.806;-70.704;2024-01-06T04:35:19;13.90;;;4.47;;
249;SDS011;109;19.806;-70.704;2024-01-06T04:37:52;11.87;;;4.77;;
249;SDS011;109;19.806;-70.704;2024-01-06T04:40:32;15.40;;;4.23;;
249;SDS011;109;19.806;-70.704;2024-01-06T04:42:59;10.20;;;4.20;;
249;SDS011;109;19.806;-70.704;2024-01-06T04:45:31;15.97;;;4.37;;
249;SDS011;109;19.806;-70.704;2024-01-06T04:48:05;11.67;;;4.00;;
249;SDS011;109;19.806;-70.704;2024-01-06T04:50:38;13.83;;;4.10;;
249;SDS011;109;19.806;-70.704;2024-01-06T04:53:07;8.97;;;4.30;;
249;SDS011;109;19.806;-70.704;2024-01-06T04:55:40;16.10;;;3.70;;
249;SDS011;109;19.806;-70.704;2024-01-06T04:58:07;15.43;;;4.67;;
249;SDS011;109;19.806;-70.704;2024-01-06T05:00:39;12.93;;;4.13;;
249;SDS011;109;19.806;-70.704;2024-01-06T05:03:06;14.53;;;3.53;;
249;SDS011;109;19.806;-70.704;2024-01-06T05:05:38;13.87;;;4.00;;
249;SDS011;109;19.806;-70.704;2024-01-06T05:08:05;11.87;;;3.70;;
249;SDS011;109;19.806;-70.704;2024-01-06T05:10:38;10.50;;;3.67;;
249;SDS011;109;19.806;-70.704;2024-01-06T05:13:05;48.23;;;5.07;;
249;SDS011;109;19.806;-70.704;2024-01-06T05:15:37;19.80;;;4.83;;
249;SDS011;109;19.806;-70.704;2024-01-06T05:18:04;23.17;;;3.80;;
249;SDS011;109;19.806;-70.704;2024-01-06T05:20:37;12.70;;;4.23;;
249;SDS011;109;19.806;-70.704;2024-01-06T05:23:06;14.33;;;3.87;;
249;SDS011;109;19.806;-70.704;2024-01-06T05:25:39;13.93;;;5.00;;
249;SDS011;109;19.806;-70.704;2024-01-06T05:28:06;9.23;;;3.90;;
249;SDS011;109;19.806;-70.704;2024-01-06T05:30:39;17.07;;;4.20;;
249;SDS011;109;19.806;-70.704;2024-01-06T05:33:09;11.93;;;4.40;;
249;SDS011;109;19.806;-70.704;2024-01-06T05:35:42;22.00;;;4.03;;
249;SDS011;109;19.806;-70.704;2024-01-06T05:38:30;18.00;;;5.00;;
249;SDS011;109;19.806;-70.704;2024-01-06T05:41:03;10.27;;;3.90;;
249;SDS011;109;19.806;-70.704;2024-01-06T05:43:30;15.57;;;4.50;;
249;SDS011;109;19.806;-70.704;2024-01-06T05:46:02;12.70;;;4.10;;
249;SDS011;109;19.806;-70.704;2024-01-06T05:48:29;12.37;;;3.43;;
249;SDS011;109;19.806;-70.704;2024-01-06T05:51:01;11.67;;;4.07;;
249;SDS011;109;19.806;-70.704;2024-01-06T05:53:31;7.20;;;3.50;;
249;SDS011;109;19.806;-70.704;2024-01-06T05:56:04;11.63;;;3.80;;
249;SDS011;109;19.806;-70.704;2024-01-06T05:58:31;12.17;;;3.83;;
249;SDS011;109;19.806;-70.704;2024-01-06T06:01:04;11.10;;;3.97;;
249;SDS011;109;19.806;-70.704;2024-01-06T06:03:31;11.40;;;3.63;;
249;SDS011;109;19.806;-70.704;2024-01-06T06:06:05;12.60;;;3.87;;
249;SDS011;109;19.806;-70.704;2024-01-06T06:08:31;18.40;;;5.23;;
249;SDS011;109;19.806;-70.704;2024-01-06T06:11:04;6.60;;;3.93;;
249;SDS011;109;19.806;-70.704;2024-01-06T06:13:42;12.90;;;3.80;;
249;SDS011;109;19.806;-70.704;2024-01-06T06:16:09;10.93;;;3.90;;
249;SDS011;109;19.806;-70.704;2024-01-06T06:18:45;12.30;;;3.97;;
249;SDS011;109;19.806;-70.704;2024-01-06T06:21:12;15.07;;;3.60;;
249;SDS011;109;19.806;-70.704;2024-01-06T06:23:45;19.17;;;3.87;;
249;SDS011;109;19.806;-70.704;2024-01-06T06:26:12;11.50;;;3.97;;
249;SDS011;109;19.806;-70.704;2024-01-06T06:28:45;8.67;;;4.23;;
249;SDS011;109;19.806;-70.704;2024-01-06T06:31:12;13.10;;;4.00;;
249;SDS011;109;19.806;-70.704;2024-01-06T06:33:44;10.10;;;4.40;;
249;SDS011;109;19.806;-70.704;2024-01-06T06:36:11;12.80;;;3.70;;
249;SDS011;109;19.806;-70.704;2024-01-06T06:38:51;11.40;;;3.63;;
249;SDS011;109;19.806;-70.704;2024-01-06T06:41:30;14.17;;;3.70;;
249;SDS011;109;19.806;-70.704;2024-01-06T06:43:57;16.97;;;4.57;;
249;SDS011;109;19.806;-70.704;2024-01-06T06:46:30;15.50;;;4.20;;
249;SDS011;109;19.806;-70.704;2024-01-06T06:48:57;12.13;;;3.97;;
249;SDS011;109;19.806;-70.704;2024-01-06T06:51:29;15.77;;;4.33;;
249;SDS011;109;19.806;-70.704;2024-01-06T06:53:56;14.37;;;4.50;;
249;SDS011;109;19.806;-70.704;2024-01-06T06:56:28;16.83;;;5.20;;
249;SDS011;109;19.806;-70.704;2024-01-06T06:58:55;11.50;;;3.97;;
249;SDS011;109;19.806;-70.704;2024-01-06T07:01:27;9.40;;;3.70;;
249;SDS011;109;19.806;-70.704;2024-01-06T07:03:54;16.77;;;4.20;;
249;SDS011;109;19.806;-70.704;2024-01-06T07:06:28;11.20;;;4.43;;
249;SDS011;109;19.806;-70.704;2024-01-06T07:08:55;14.67;;;4.10;;
249;SDS011;109;19.806;-70.704;2024-01-06T07:11:29;13.17;;;4.50;;
249;SDS011;109;19.806;-70.704;2024-01-06T07:13:56;11.40;;;4.30;;
249;SDS011;109;19.806;-70.704;2024-01-06T07:16:30;16.80;;;4.53;;
249;SDS011;109;19.806;-70.704;2024-01-06T07:18:56;11.13;;;4.47;;
249;SDS011;109;19.806;-70.704;2024-01-06T07:21:28;12.27;;;3.87;;
249;SDS011;109;19.806;-70.704;2024-01-06T07:23:55;7.93;;;3.73;;
249;SDS011;109;19.806;-70.704;2024-01-06T07:26:27;8.33;;;3.83;;
249;SDS011;109;19.806;-70.704;2024-01-06T07:28:54;11.47;;;4.10;;
249;SDS011;109;19.806;-70.704;2024-01-06T07:31:28;11.83;;;4.13;;
249;SDS011;109;19.806;-70.704;2024-01-06T07:33:54;6.47;;;3.90;;
249;SDS011;109;19.806;-70.704;2024-01-06T07:36:34;16.10;;;4.33;;
249;SDS011;109;19.806;-70.704;2024-01-06T07:39:13;11.20;;;4.10;;
249;SDS011;109;19.806;-70.704;2024-01-06T07:41:43;19.90;;;4.13;;
249;SDS011;109;19.806;-70.704;2024-01-06T07:44:16;8.10;;;3.37;;
249;SDS011;109;19.806;-70.704;2024-01-06T07:46:54;19.47;;;6.10;;
249;SDS011;109;19.806;-70.704;2024-01-06T07:49:21;17.00;;;3.90;;
249;SDS011;109;19.806;-70.704;2024-01-06T07:52:01;13.20;;;3.90;;
249;SDS011;109;19.806;-70.704;2024-01-06T07:54:34;13.33;;;4.10;;
249;SDS011;109;19.806;-70.704;2024-01-06T07:57:01;13.60;;;4.30;;
249;SDS011;109;19.806;-70.704;2024-01-06T07:59:34;19.97;;;5.47;;
249;SDS011;109;19.806;-70.704;2024-01-06T08:02:04;10.83;;;4.53;;
249;SDS011;109;19.806;-70.704;2024-01-06T08:04:37;10.20;;;3.93;;
249;SDS011;109;19.806;-70.704;2024-01-06T08:07:04;17.50;;;4.30;;
249;SDS011;109;19.806;-70.704;2024-01-06T08:09:36;13.60;;;3.90;;
249;SDS011;109;19.806;-70.704;2024-01-06T08:12:03;12.77;;;4.37;;
249;SDS011;109;19.806;-70.704;2024-01-06T08:14:37;9.27;;;4.27;;
249;SDS011;109;19.806;-70.704;2024-01-06T08:17:03;20.70;;;4.30;;
249;SDS011;109;19.806;-70.704;2024-01-06T08:19:37;13.37;;;4.60;;
249;SDS011;109;19.806;-70.704;2024-01-06T08:22:03;12.07;;;3.93;;
249;SDS011;109;19.806;-70.704;2024-01-06T08:24:36;6.00;;;3.70;;
249;SDS011;109;19.806;-70.704;2024-01-06T08:27:03;15.40;;;3.90;;
249;SDS011;109;19.806;-70.704;2024-01-06T08:29:36;10.40;;;5.00;;
249;SDS011;109;19.806;-70.704;2024-01-06T08:32:03;12.67;;;4.60;;
249;SDS011;109;19.806;-70.704;2024-01-06T08:34:37;16.93;;;4.70;;
249;SDS011;109;19.806;-70.704;2024-01-06T08:37:11;15.17;;;4.83;;
249;SDS011;109;19.806;-70.704;2024-01-06T08:39:46;12.03;;;4.50;;
249;SDS011;109;19.806;-70.704;2024-01-06T08:42:25;15.80;;;4.70;;
249;SDS011;109;19.806;-70.704;2024-01-06T08:44:52;20.27;;;5.53;;
249;SDS011;109;19.806;-70.704;2024-01-06T08:47:25;14.30;;;4.80;;
249;SDS011;109;19.806;-70.704;2024-01-06T08:49:52;18.47;;;4.93;;
249;SDS011;109;19.806;-70.704;2024-01-06T08:52:24;14.53;;;4.20;;
249;SDS011;109;19.806;-70.704;2024-01-06T08:54:51;20.23;;;4.67;;
249;SDS011;109;19.806;-70.704;2024-01-06T08:57:23;5.73;;;4.50;;
249;SDS011;109;19.806;-70.704;2024-01-06T08:59:50;8.20;;;4.67;;
249;SDS011;109;19.806;-70.704;2024-01-06T09:02:22;18.90;;;5.53;;
249;SDS011;109;19.806;-70.704;2024-01-06T09:04:49;14.60;;;5.30;;
249;SDS011;109;19.806;-70.704;2024-01-06T09:07:22;11.80;;;4.90;;
249;SDS011;109;19.806;-70.704;2024-01-06T09:09:48;10.57;;;5.20;;
249;SDS011;109;19.806;-70.704;2024-01-06T09:12:23;11.53;;;4.57;;
249;SDS011;109;19.806;-70.704;2024-01-06T09:14:49;17.47;;;6.10;;
249;SDS011;109;19.806;-70.704;2024-01-06T09:17:26;20.40;;;5.50;;
249;SDS011;109;19.806;-70.704;2024-01-06T09:19:52;20.10;;;5.93;;
249;SDS011;109;19.806;-70.704;2024-01-06T09:22:26;10.50;;;5.47;;
249;SDS011;109;19.806;-70.704;2024-01-06T09:25:00;15.23;;;5.23;;
249;SDS011;109;19.806;-70.704;2024-01-06T09:27:34;11.00;;;5.20;;
249;SDS011;109;19.806;-70.704;2024-01-06T09:30:00;11.23;;;4.67;;
249;SDS011;109;19.806;-70.704;2024-01-06T09:32:34;10.97;;;4.70;;
249;SDS011;109;19.806;-70.704;2024-01-06T09:35:00;8.60;;;4.60;;
249;SDS011;109;19.806;-70.704;2024-01-06T09:37:32;14.60;;;4.43;;
249;SDS011;109;19.806;-70.704;2024-01-06T09:40:22;15.77;;;4.10;;
249;SDS011;109;19.806;-70.704;2024-01-06T09:42:55;22.30;;;4.80;;
249;SDS011;109;19.806;-70.704;2024-01-06T09:45:22;13.70;;;4.40;;
249;SDS011;109;19.806;-70.704;2024-01-06T09:47:56;16.83;;;4.67;;
249;SDS011;109;19.806;-70.704;2024-01-06T09:50:24;13.73;;;4.20;;
249;SDS011;109;19.806;-70.704;2024-01-06T09:52:58;24.37;;;4.20;;
249;SDS011;109;19.806;-70.704;2024-01-06T09:55:37;12.47;;;4.37;;
249;SDS011;109;19.806;-70.704;2024-01-06T09:58:05;14.50;;;4.30;;
249;SDS011;109;19.806;-70.704;2024-01-06T10:00:38;10.73;;;3.83;;
249;SDS011;109;19.806;-70.704;2024-01-06T10:03:05;14.10;;;4.23;;
249;SDS011;109;19.806;-70.704;2024-01-06T10:05:48;9.67;;;4.47;;
249;SDS011;109;19.806;-70.704;2024-01-06T10:08:21;17.23;;;6.10;;
249;SDS011;109;19.806;-70.704;2024-01-06T10:11:01;10.70;;;4.37;;
249;SDS011;109;19.806;-70.704;2024-01-06T10:13:28;12.13;;;4.30;;
249;SDS011;109;19.806;-70.704;2024-01-06T10:16:01;14.97;;;4.53;;
249;SDS011;109;19.806;-70.704;2024-01-06T10:18:28;17.43;;;5.23;;
249;SDS011;109;19.806;-70.704;2024-01-06T10:21:05;14.43;;;4.60;;
249;SDS011;109;19.806;-70.704;2024-01-06T10:23:38;9.00;;;4.00;;
249;SDS011;109;19.806;-70.704;2024-01-06T10:26:05;14.00;;;4.73;;
249;SDS011;109;19.806;-70.704;2024-01-06T10:28:37;17.80;;;4.07;;
249;SDS011;109;19.806;-70.704;2024-01-06T10:33:52;14.67;;;5.10;;
249;SDS011;109;19.806;-70.704;2024-01-06T10:36:40;10.40;;;4.30;;
249;SDS011;109;19.806;-70.704;2024-01-06T10:39:13;16.17;;;4.57;;
249;SDS011;109;19.806;-70.704;2024-01-06T10:41:43;13.37;;;4.37;;
249;SDS011;109;19.806;-70.704;2024-01-06T10:44:24;14.70;;;4.63;;
249;SDS011;109;19.806;-70.704;2024-01-06T10:47:00;17.23;;;5.00;;
249;SDS011;109;19.806;-70.704;2024-01-06T10:49:28;11.50;;;5.70;;
249;SDS011;109;19.806;-70.704;2024-01-06T10:51:56;11.53;;;5.13;;
249;SDS011;109;19.806;-70.704;2024-01-06T10:54:25;16.90;;;5.90;;
249;SDS011;109;19.806;-70.704;2024-01-06T10:56:54;11.00;;;5.97;;
249;SDS011;109;19.806;-70.704;2024-01-06T10:59:23;15.03;;;5.47;;
249;SDS011;109;19.806;-70.704;2024-01-06T11:01:52;10.37;;;5.10;;
249;SDS011;109;19.806;-70.704;2024-01-06T11:04:19;14.27;;;6.13;;
249;SDS011;109;19.806;-70.704;2024-01-06T11:06:48;16.67;;;5.27;;
249;SDS011;109;19.806;-70.704;2024-01-06T11:09:19;13.57;;;5.83;;
249;SDS011;109;19.806;-70.704;2024-01-06T11:11:50;11.23;;;5.20;;
249;SDS011;109;19.806;-70.704;2024-01-06T11:14:18;14.83;;;5.03;;
249;SDS011;109;19.806;-70.704;2024-01-06T11:16:59;16.17;;;6.10;;
249;SDS011;109;19.806;-70.704;2024-01-06T11:22:28;13.93;;;5.40;;
249;SDS011;109;19.806;-70.704;2024-01-06T11:25:03;16.23;;;5.63;;
249;SDS011;109;19.806;-70.704;2024-01-06T11:27:31;14.03;;;5.47;;
249;SDS011;109;19.806;-70.704;2024-01-06T11:29:58;13.33;;;6.37;;
249;SDS011;109;19.806;-70.704;2024-01-06T11:32:29;16.07;;;7.20;;
249;SDS011;109;19.806;-70.704;2024-01-06T11:35:09;12.80;;;5.40;;
249;SDS011;109;19.806;-70.704;2024-01-06T11:40:22;15.30;;;5.00;;
249;SDS011;109;19.806;-70.704;2024-01-06T11:43:03;15.20;;;4.80;;
249;SDS011;109;19.806;-70.704;2024-01-06T11:45:33;12.37;;;4.70;;
249;SDS011;109;19.806;-70.704;2024-01-06T11:48:04;18.23;;;4.90;;
249;SDS011;109;19.806;-70.704;2024-01-06T11:50:32;22.40;;;4.97;;
249;SDS011;109;19.806;-70.704;2024-01-06T11:53:04;20.23;;;7.10;;
249;SDS011;109;19.806;-70.704;2024-01-06T11:55:31;14.57;;;5.27;;
249;SDS011;109;19.806;-70.704;2024-01-06T11:57:58;14.57;;;5.60;;
249;SDS011;109;19.806;-70.704;2024-01-06T12:00:28;13.37;;;4.70;;
249;SDS011;109;19.806;-70.704;2024-01-06T12:02:56;15.23;;;5.57;;
249;SDS011;109;19.806;-70.704;2024-01-06T12:05:23;11.53;;;5.20;;
249;SDS011;109;19.806;-70.704;2024-01-06T12:07:55;16.67;;;5.63;;
249;SDS011;109;19.806;-70.704;2024-01-06T12:10:23;16.73;;;6.20;;
249;SDS011;109;19.806;-70.704;2024-01-06T12:12:57;14.93;;;5.90;;
249;SDS011;109;19.806;-70.704;2024-01-06T12:15:28;14.40;;;5.97;;
249;SDS011;109;19.806;-70.704;2024-01-06T12:17:56;10.23;;;5.03;;
249;SDS011;109;19.806;-70.704;2024-01-06T12:20:23;21.60;;;5.20;;
249;SDS011;109;19.806;-70.704;2024-01-06T12:22:53;13.10;;;5.00;;
249;SDS011;109;19.806;-70.704;2024-01-06T12:25:22;7.53;;;4.33;;
249;SDS011;109;19.806;-70.704;2024-01-06T12:27:52;12.10;;;4.47;;
249;SDS011;109;19.806;-70.704;2024-01-06T12:30:19;15.47;;;5.00;;
249;SDS011;109;19.806;-70.704;2024-01-06T12:32:47;10.13;;;4.50;;
249;SDS011;109;19.806;-70.704;2024-01-06T12:35:15;11.13;;;4.23;;
249;SDS011;109;19.806;-70.704;2024-01-06T12:37:42;14.20;;;4.80;;
249;SDS011;109;19.806;-70.704;2024-01-06T12:40:11;10.10;;;4.40;;
249;SDS011;109;19.806;-70.704;2024-01-06T12:42:39;17.50;;;4.87;;
249;SDS011;109;19.806;-70.704;2024-01-06T12:45:06;12.80;;;3.93;;
249;SDS011;109;19.806;-70.704;2024-01-06T12:47:33;10.80;;;4.50;;
249;SDS011;109;19.806;-70.704;2024-01-06T12:49:59;16.03;;;4.20;;
249;SDS011;109;19.806;-70.704;2024-01-06T12:52:26;8.50;;;4.60;;
249;SDS011;109;19.806;-70.704;2024-01-06T12:54:52;10.27;;;4.20;;
249;SDS011;109;19.806;-70.704;2024-01-06T12:57:19;9.83;;;3.53;;
249;SDS011;109;19.806;-70.704;2024-01-06T12:59:45;9.40;;;3.47;;
249;SDS011;109;19.806;-70.704;2024-01-06T13:02:12;10.13;;;3.50;;
249;SDS011;109;19.806;-70.704;2024-01-06T13:04:38;11.07;;;4.10;;
249;SDS011;109;19.806;-70.704;2024-01-06T13:07:05;9.70;;;3.50;;
249;SDS011;109;19.806;-70.704;2024-01-06T13:09:31;11.63;;;4.00;;
249;SDS011;109;19.806;-70.704;2024-01-06T13:11:59;11.30;;;4.17;;
249;SDS011;109;19.806;-70.704;2024-01-06T13:14:28;6.67;;;3.57;;
249;SDS011;109;19.806;-70.704;2024-01-06T13:16:55;35.77;;;4.43;;
249;SDS011;109;19.806;-70.704;2024-01-06T13:19:22;9.27;;;3.90;;
249;SDS011;109;19.806;-70.704;2024-01-06T13:21:49;10.73;;;4.00;;
249;SDS011;109;19.806;-70.704;2024-01-06T13:24:16;14.27;;;3.83;;
249;SDS011;109;19.806;-70.704;2024-01-06T13:26:42;10.83;;;4.60;;
249;SDS011;109;19.806;-70.704;2024-01-06T13:29:09;16.20;;;3.70;;
249;SDS011;109;19.806;-70.704;2024-01-06T13:31:35;8.67;;;3.10;;
249;SDS011;109;19.806;-70.704;2024-01-06T13:34:02;10.10;;;3.57;;
249;SDS011;109;19.806;-70.704;2024-01-06T13:36:29;10.40;;;3.57;;
249;SDS011;109;19.806;-70.704;2024-01-06T13:38:55;9.10;;;3.80;;
249;SDS011;109;19.806;-70.704;2024-01-06T13:41:22;10.83;;;3.60;;
249;SDS011;109;19.806;-70.704;2024-01-06T13:43:48;4.93;;;3.10;;
249;SDS011;109;19.806;-70.704;2024-01-06T13:46:16;11.30;;;3.47;;
249;SDS011;109;19.806;-70.704;2024-01-06T13:48:42;7.30;;;3.83;;
249;SDS011;109;19.806;-70.704;2024-01-06T13:51:09;8.77;;;3.80;;
249;SDS011;109;19.806;-70.704;2024-01-06T13:53:35;10.73;;;3.77;;
249;SDS011;109;19.806;-70.704;2024-01-06T13:56:02;13.20;;;3.73;;
249;SDS011;109;19.806;-70.704;2024-01-06T13:58:29;10.10;;;4.33;;
249;SDS011;109;19.806;-70.704;2024-01-06T14:00:55;17.60;;;4.50;;
249;SDS011;109;19.806;-70.704;2024-01-06T14:03:22;8.93;;;3.70;;
249;SDS011;109;19.806;-70.704;2024-01-06T14:05:49;15.90;;;4.93;;
249;SDS011;109;19.806;-70.704;2024-01-06T14:08:17;17.03;;;3.40;;
249;SDS011;109;19.806;-70.704;2024-01-06T14:10:43;14.77;;;3.70;;
249;SDS011;109;19.806;-70.704;2024-01-06T14:13:10;8.80;;;3.40;;
249;SDS011;109;19.806;-70.704;2024-01-06T14:15:36;11.47;;;3.83;;
249;SDS011;109;19.806;-70.704;2024-01-06T14:18:03;11.13;;;4.10;;
249;SDS011;109;19.806;-70.704;2024-01-06T14:20:30;9.00;;;3.13;;
249;SDS011;109;19.806;-70.704;2024-01-06T14:22:57;14.30;;;3.83;;
249;SDS011;109;19.806;-70.704;2024-01-06T14:25:24;10.77;;;3.37;;
249;SDS011;109;19.806;-70.704;2024-01-06T14:27:51;10.43;;;3.23;;
249;SDS011;109;19.806;-70.704;2024-01-06T14:30:18;9.77;;;3.27;;
249;SDS011;109;19.806;-70.704;2024-01-06T14:32:45;8.33;;;3.00;;
249;SDS011;109;19.806;-70.704;2024-01-06T14:35:12;9.03;;;3.07;;
249;SDS011;109;19.806;-70.704;2024-01-06T14:37:39;11.30;;;3.50;;
249;SDS011;109;19.806;-70.704;2024-01-06T14:40:06;11.00;;;3.33;;
249;SDS011;109;19.806;-70.704;2024-01-06T14:42:33;16.63;;;3.80;;
249;SDS011;109;19.806;-70.704;2024-01-06T14:45:01;20.00;;;4.20;;
249;SDS011;109;19.806;-70.704;2024-01-06T14:47:28;11.63;;;3.63;;
249;SDS011;109;19.806;-70.704;2024-01-06T14:49:55;10.83;;;3.10;;
249;SDS011;109;19.806;-70.704;2024-01-06T14:52:21;14.70;;;3.20;;
249;SDS011;109;19.806;-70.704;2024-01-06T14:54:48;8.07;;;3.10;;
249;SDS011;109;19.806;-70.704;2024-01-06T14:57:15;9.07;;;3.10;;
249;SDS011;109;19.806;-70.704;2024-01-06T14:59:42;15.70;;;3.40;;
249;SDS011;109;19.806;-70.704;2024-01-06T15:02:09;11.97;;;3.53;;
249;SDS011;109;19.806;-70.704;2024-01-06T15:04:38;5.67;;;3.00;;
249;SDS011;109;19.806;-70.704;2024-01-06T15:07:05;10.13;;;3.43;;
249;SDS011;109;19.806;-70.704;2024-01-06T15:09:31;8.63;;;3.10;;
249;SDS011;109;19.806;-70.704;2024-01-06T15:11:57;21.17;;;3.43;;
249;SDS011;109;19.806;-70.704;2024-01-06T15:14:24;8.73;;;3.20;;
249;SDS011;109;19.806;-70.704;2024-01-06T15:16:51;12.03;;;3.20;;
249;SDS011;109;19.806;-70.704;2024-01-06T15:19:17;18.57;;;3.50;;
249;SDS011;109;19.806;-70.704;2024-01-06T15:21:43;12.80;;;2.93;;
249;SDS011;109;19.806;-70.704;2024-01-06T15:24:13;6.00;;;2.57;;
249;SDS011;109;19.806;-70.704;2024-01-06T15:26:40;8.40;;;2.93;;